sensor_id;sensor_type;location;lat;lon;timestamp;pressure;altitude;pressure_sealevel;temperature;humidity
34961;BME280;30789;52.030;7.110;2024-03-25T00:01:07;99744.50;;;5.03;100.00
34961;BME280;30789;52.030;7.110;2024-03-25T00:03:34;99749.16;;;4.99;100.00
34961;BME280;30789;52.030;7.110;2024-03-25T00:06:08;99758.44;;;4.95;100.00
34961;BME280;30789;52.030;7.110;2024-03-25T00:08:48;99751.44;;;4.97;100.00
34961;BME280;30789;52.030;7.110;2024-03-25T00:11:13;99757.34;;;4.99;100.00
34961;BME280;30789;52.030;7.110;2024-03-25T00:13:40;99761.69;;;5.04;100.00
34961;BME280;30789;52.030;7.110;2024-03-25T00:16:06;99760.84;;;5.00;100.00
34961;BME280;30789;52.030;7.110;2024-03-25T00:18:33;99761.22;;;4.98;100.00
34961;BME280;30789;52.030;7.110;2024-03-25T00:20:59;99763.13;;;4.94;100.00
34961;BME280;30789;52.030;7.110;2024-03-25T00:23:26;99764.28;;;4.93;100.00
34961;BME280;30789;52.030;7.110;2024-03-25T00:25:53;99758.38;;;4.91;100.00
34961;BME280;30789;52.030;7.110;2024-03-25T00:28:19;99759.56;;;4.90;100.00
34961;BME280;30789;52.030;7.110;2024-03-25T00:30:45;99759.59;;;4.94;100.00
34961;BME280;30789;52.030;7.110;2024-03-25T00:33:14;99755.53;;;4.84;100.00
34961;BME280;30789;52.030;7.110;2024-03-25T00:35:42;99770.72;;;4.82;100.00
34961;BME280;30789;52.030;7.110;2024-03-25T00:38:09;99767.13;;;4.74;100.00
34961;BME280;30789;52.030;7.110;2024-03-25T00:40:39;99771.31;;;4.68;100.00
34961;BME280;30789;52.030;7.110;2024-03-25T00:43:08;99765.13;;;4.71;100.00
34961;BME280;30789;52.030;7.110;2024-03-25T00:45:33;99762.31;;;4.68;100.00
34961;BME280;30789;52.030;7.110;2024-03-25T00:48:02;99767.69;;;4.61;100.00
34961;BME280;30789;52.030;7.110;2024-03-25T00:50:31;99764.97;;;4.61;100.00
34961;BME280;30789;52.030;7.110;2024-03-25T00:53:04;99772.03;;;4.65;100.00
34961;BME280;30789;52.030;7.110;2024-03-25T00:55:29;99768.28;;;4.51;100.00
34961;BME280;30789;52.030;7.110;2024-03-25T00:57:56;99761.66;;;4.48;100.00
34961;BME280;30789;52.030;7.110;2024-03-25T01:00:36;99761.66;;;4.48;100.00
34961;BME280;30789;52.030;7.110;2024-03-25T01:03:07;99766.72;;;4.50;100.00
34961;BME280;30789;52.030;7.110;2024-03-25T01:05:33;99769.91;;;4.52;100.00
34961;BME280;30789;52.030;7.110;2024-03-25T01:08:04;99766.44;;;4.55;100.00
34961;BME280;30789;52.030;7.110;2024-03-25T01:10:29;99778.59;;;4.61;100.00
34961;BME280;30789;52.030;7.110;2024-03-25T01:13:00;99764.28;;;4.67;100.00
34961;BME280;30789;52.030;7.110;2024-03-25T01:15:30;99754.94;;;4.68;100.00
34961;BME280;30789;52.030;7.110;2024-03-25T01:17:57;99756.25;;;4.78;100.00
34961;BME280;30789;52.030;7.110;2024-03-25T01:20:22;99755.78;;;4.72;100.00
34961;BME280;30789;52.030;7.110;2024-03-25T01:22:51;99761.22;;;4.72;100.00
34961;BME280;30789;52.030;7.110;2024-03-25T01:25:17;99761.06;;;4.88;100.00
34961;BME280;30789;52.030;7.110;2024-03-25T01:27:44;99767.53;;;4.76;100.00
34961;BME280;30789;52.030;7.110;2024-03-25T01:30:13;99771.25;;;4.91;100.00
34961;BME280;30789;52.030;7.110;2024-03-25T01:32:41;99772.78;;;4.88;100.00
34961;BME280;30789;52.030;7.110;2024-03-25T01:35:08;99768.75;;;4.79;100.00
34961;BME280;30789;52.030;7.110;2024-03-25T01:37:35;99764.84;;;4.80;100.00
34961;BME280;30789;52.030;7.110;2024-03-25T01:40:01;99768.06;;;4.85;100.00
34961;BME280;30789;52.030;7.110;2024-03-25T01:42:29;99766.06;;;4.82;100.00
34961;BME280;30789;52.030;7.110;2024-03-25T01:44:57;99759.06;;;4.85;100.00
34961;BME280;30789;52.030;7.110;2024-03-25T01:47:24;99759.81;;;4.82;100.00
34961;BME280;30789;52.030;7.110;2024-03-25T01:49:52;99759.00;;;4.81;100.00
34961;BME280;30789;52.030;7.110;2024-03-25T01:52:21;99762.03;;;4.73;100.00
34961;BME280;30789;52.030;7.110;2024-03-25T01:54:48;99767.91;;;4.75;100.00
34961;BME280;30789;52.030;7.110;2024-03-25T01:57:15;99765.13;;;4.71;100.00
34961;BME280;30789;52.030;7.110;2024-03-25T01:59:44;99762.69;;;4.66;100.00
34961;BME280;30789;52.030;7.110;2024-03-25T02:02:12;99759.56;;;4.64;100.00
34961;BME280;30789;52.030;7.110;2024-03-25T02:04:38;99767.25;;;4.59;100.00
34961;BME280;30789;52.030;7.110;2024-03-25T02:07:10;99769.19;;;4.58;100.00
34961;BME280;30789;52.030;7.110;2024-03-25T02:09:39;99769.63;;;4.60;100.00
34961;BME280;30789;52.030;7.110;2024-03-25T02:12:09;99773.03;;;4.54;100.00
34961;BME280;30789;52.030;7.110;2024-03-25T02:14:36;99775.28;;;4.48;100.00
34961;BME280;30789;52.030;7.110;2024-03-25T02:17:05;99779.19;;;4.47;100.00
34961;BME280;30789;52.030;7.110;2024-03-25T02:19:31;99781.16;;;4.50;100.00
34961;BME280;30789;52.030;7.110;2024-03-25T02:22:00;99781.09;;;4.47;100.00
34961;BME280;30789;52.030;7.110;2024-03-25T02:24:27;99780.81;;;4.52;100.00
34961;BME280;30789;52.030;7.110;2024-03-25T02:26:57;99786.72;;;4.57;100.00
34961;BME280;30789;52.030;7.110;2024-03-25T02:29:23;99782.13;;;4.61;100.00
34961;BME280;30789;52.030;7.110;2024-03-25T02:31:52;99785.94;;;4.57;100.00
34961;BME280;30789;52.030;7.110;2024-03-25T02:34:20;99791.50;;;4.64;100.00
34961;BME280;30789;52.030;7.110;2024-03-25T02:36:47;99790.34;;;4.65;100.00
34961;BME280;30789;52.030;7.110;2024-03-25T02:39:13;99789.31;;;4.73;100.00
34961;BME280;30789;52.030;7.110;2024-03-25T02:41:39;99786.88;;;4.68;100.00
34961;BME280;30789;52.030;7.110;2024-03-25T02:44:07;99786.50;;;4.66;100.00
34961;BME280;30789;52.030;7.110;2024-03-25T02:46:36;99786.53;;;4.69;100.00
34961;BME280;30789;52.030;7.110;2024-03-25T02:49:07;99792.78;;;4.70;100.00
34961;BME280;30789;52.030;7.110;2024-03-25T02:51:37;99798.28;;;4.73;100.00
34961;BME280;30789;52.030;7.110;2024-03-25T02:54:03;99800.13;;;4.66;100.00
34961;BME280;30789;52.030;7.110;2024-03-25T02:56:29;99791.97;;;4.69;100.00
34961;BME280;30789;52.030;7.110;2024-03-25T02:58:55;99792.88;;;4.77;100.00
34961;BME280;30789;52.030;7.110;2024-03-25T03:01:25;99795.50;;;4.70;100.00
34961;BME280;30789;52.030;7.110;2024-03-25T03:03:53;99799.69;;;4.64;100.00
34961;BME280;30789;52.030;7.110;2024-03-25T03:06:20;99800.16;;;4.69;100.00
34961;BME280;30789;52.030;7.110;2024-03-25T03:08:45;99804.00;;;4.65;100.00
34961;BME280;30789;52.030;7.110;2024-03-25T03:11:15;99798.53;;;4.65;100.00
34961;BME280;30789;52.030;7.110;2024-03-25T03:13:41;99797.41;;;4.66;100.00
34961;BME280;30789;52.030;7.110;2024-03-25T03:16:07;99795.78;;;4.61;100.00
34961;BME280;30789;52.030;7.110;2024-03-25T03:18:34;99798.69;;;4.49;100.00
34961;BME280;30789;52.030;7.110;2024-03-25T03:21:04;99791.28;;;4.50;100.00
34961;BME280;30789;52.030;7.110;2024-03-25T03:23:30;99799.41;;;4.46;100.00
34961;BME280;30789;52.030;7.110;2024-03-25T03:25:56;99797.31;;;4.36;100.00
34961;BME280;30789;52.030;7.110;2024-03-25T03:28:25;99805.72;;;4.28;100.00
34961;BME280;30789;52.030;7.110;2024-03-25T03:30:53;99809.53;;;4.23;100.00
34961;BME280;30789;52.030;7.110;2024-03-25T03:33:20;99813.06;;;4.24;100.00
34961;BME280;30789;52.030;7.110;2024-03-25T03:35:52;99808.03;;;4.26;100.00
34961;BME280;30789;52.030;7.110;2024-03-25T03:38:18;99812.63;;;4.22;100.00
34961;BME280;30789;52.030;7.110;2024-03-25T03:40:56;99818.31;;;4.13;100.00
34961;BME280;30789;52.030;7.110;2024-03-25T03:43:22;99816.41;;;4.14;100.00
34961;BME280;30789;52.030;7.110;2024-03-25T03:45:49;99812.16;;;4.16;100.00
34961;BME280;30789;52.030;7.110;2024-03-25T03:48:14;99823.22;;;4.27;100.00
34961;BME280;30789;52.030;7.110;2024-03-25T03:50:41;99816.63;;;4.28;100.00
34961;BME280;30789;52.030;7.110;2024-03-25T03:53:09;99819.19;;;4.40;100.00
34961;BME280;30789;52.030;7.110;2024-03-25T03:55:36;99817.84;;;4.30;100.00
34961;BME280;30789;52.030;7.110;2024-03-25T03:58:02;99817.84;;;4.30;100.00
34961;BME280;30789;52.030;7.110;2024-03-25T04:00:33;99811.16;;;4.28;100.00
34961;BME280;30789;52.030;7.110;2024-03-25T04:02:59;99806.66;;;4.35;100.00
34961;BME280;30789;52.030;7.110;2024-03-25T04:05:28;99822.88;;;4.28;100.00
34961;BME280;30789;52.030;7.110;2024-03-25T04:07:54;99828.03;;;4.33;100.00
34961;BME280;30789;52.030;7.110;2024-03-25T04:10:23;99815.41;;;4.25;100.00
34961;BME280;30789;52.030;7.110;2024-03-25T04:12:49;99813.50;;;4.26;100.00
34961;BME280;30789;52.030;7.110;2024-03-25T04:15:18;99808.03;;;4.26;100.00
34961;BME280;30789;52.030;7.110;2024-03-25T04:17:44;99815.06;;;4.27;100.00
34961;BME280;30789;52.030;7.110;2024-03-25T04:20:15;99809.78;;;4.15;100.00
34961;BME280;30789;52.030;7.110;2024-03-25T04:22:44;99818.75;;;4.15;100.00
34961;BME280;30789;52.030;7.110;2024-03-25T04:25:13;99810.63;;;4.19;100.00
34961;BME280;30789;52.030;7.110;2024-03-25T04:27:41;99813.13;;;4.27;100.00
34961;BME280;30789;52.030;7.110;2024-03-25T04:30:08;99822.41;;;4.23;100.00
34961;BME280;30789;52.030;7.110;2024-03-25T04:32:34;99816.63;;;4.28;100.00
34961;BME280;30789;52.030;7.110;2024-03-25T04:35:07;99810.31;;;4.24;100.00
34961;BME280;30789;52.030;7.110;2024-03-25T04:37:33;99810.97;;;4.17;100.00
34961;BME280;30789;52.030;7.110;2024-03-25T04:39:59;99814.63;;;4.25;100.00
34961;BME280;30789;52.030;7.110;2024-03-25T04:42:26;99812.16;;;4.16;100.00
34961;BME280;30789;52.030;7.110;2024-03-25T04:44:54;99812.22;;;4.20;100.00
34961;BME280;30789;52.030;7.110;2024-03-25T04:47:21;99812.94;;;4.17;100.00
34961;BME280;30789;52.030;7.110;2024-03-25T04:49:47;99812.88;;;4.13;100.00
34961;BME280;30789;52.030;7.110;2024-03-25T04:52:14;99811.41;;;4.19;100.00
34961;BME280;30789;52.030;7.110;2024-03-25T04:54:42;99804.44;;;4.22;100.00
34961;BME280;30789;52.030;7.110;2024-03-25T04:57:08;99810.22;;;4.17;100.00
34961;BME280;30789;52.030;7.110;2024-03-25T04:59:34;99813.31;;;4.15;100.00
34961;BME280;30789;52.030;7.110;2024-03-25T05:02:01;99821.47;;;4.15;100.00
34961;BME280;30789;52.030;7.110;2024-03-25T05:04:27;99818.88;;;4.22;100.00
34961;BME280;30789;52.030;7.110;2024-03-25T05:06:53;99816.22;;;4.26;100.00
34961;BME280;30789;52.030;7.110;2024-03-25T05:09:19;99825.34;;;4.14;100.00
34961;BME280;30789;52.030;7.110;2024-03-25T05:11:48;99828.63;;;4.23;100.00
34961;BME280;30789;52.030;7.110;2024-03-25T05:14:14;99822.63;;;4.14;100.00
34961;BME280;30789;52.030;7.110;2024-03-25T05:16:39;99826.44;;;4.10;100.00
34961;BME280;30789;52.030;7.110;2024-03-25T05:19:06;99829.59;;;4.12;100.00
34961;BME280;30789;52.030;7.110;2024-03-25T05:21:32;99829.59;;;4.12;100.00
34961;BME280;30789;52.030;7.110;2024-03-25T05:23:58;99827.34;;;4.17;100.00
34961;BME280;30789;52.030;7.110;2024-03-25T05:26:24;99842.56;;;4.18;100.00
34961;BME280;30789;52.030;7.110;2024-03-25T05:28:52;99835.66;;;4.24;100.00
34961;BME280;30789;52.030;7.110;2024-03-25T05:31:18;99840.41;;;4.27;100.00
34961;BME280;30789;52.030;7.110;2024-03-25T05:33:44;99840.25;;;4.20;100.00
34961;BME280;30789;52.030;7.110;2024-03-25T05:36:11;99841.84;;;4.21;100.00
34961;BME280;30789;52.030;7.110;2024-03-25T05:38:37;99845.31;;;4.18;100.00
34961;BME280;30789;52.030;7.110;2024-03-25T05:41:04;99848.16;;;4.25;100.00
34961;BME280;30789;52.030;7.110;2024-03-25T05:43:30;99850.16;;;4.28;100.00
34961;BME280;30789;52.030;7.110;2024-03-25T05:45:56;99841.38;;;4.38;100.00
34961;BME280;30789;52.030;7.110;2024-03-25T05:48:24;99845.78;;;4.24;100.00
34961;BME280;30789;52.030;7.110;2024-03-25T05:51:00;99842.25;;;4.23;100.00
34961;BME280;30789;52.030;7.110;2024-03-25T05:53:28;99844.94;;;4.20;100.00
34961;BME280;30789;52.030;7.110;2024-03-25T05:55:54;99845.66;;;4.17;100.00
34961;BME280;30789;52.030;7.110;2024-03-25T05:58:20;99842.75;;;4.06;100.00
34961;BME280;30789;52.030;7.110;2024-03-25T06:00:47;99845.59;;;4.13;100.00
34961;BME280;30789;52.030;7.110;2024-03-25T06:03:13;99841.28;;;4.12;100.00
34961;BME280;30789;52.030;7.110;2024-03-25T06:05:39;99847.16;;;4.14;100.00
34961;BME280;30789;52.030;7.110;2024-03-25T06:08:06;99850.06;;;4.25;100.00
34961;BME280;30789;52.030;7.110;2024-03-25T06:10:36;99848.16;;;4.25;100.00
34961;BME280;30789;52.030;7.110;2024-03-25T06:13:02;99843.53;;;4.29;100.00
34961;BME280;30789;52.030;7.110;2024-03-25T06:15:28;99849.94;;;4.37;100.00
34961;BME280;30789;52.030;7.110;2024-03-25T06:17:54;99852.16;;;4.31;100.00
34961;BME280;30789;52.030;7.110;2024-03-25T06:20:21;99852.06;;;4.28;100.00
34961;BME280;30789;52.030;7.110;2024-03-25T06:22:47;99855.25;;;4.30;100.00
34961;BME280;30789;52.030;7.110;2024-03-25T06:25:13;99857.88;;;4.26;100.00
34961;BME280;30789;52.030;7.110;2024-03-25T06:27:47;99851.97;;;4.21;100.00
34961;BME280;30789;52.030;7.110;2024-03-25T06:30:13;99851.97;;;4.21;100.00
34961;BME280;30789;52.030;7.110;2024-03-25T06:33:09;99855.97;;;4.27;100.00
34961;BME280;30789;52.030;7.110;2024-03-25T06:35:58;99858.31;;;4.28;100.00
34961;BME280;30789;52.030;7.110;2024-03-25T06:38:24;99858.69;;;4.27;100.00
34961;BME280;30789;52.030;7.110;2024-03-25T06:40:50;99860.94;;;4.21;100.00
34961;BME280;30789;52.030;7.110;2024-03-25T06:43:23;99865.34;;;4.29;100.00
34961;BME280;30789;52.030;7.110;2024-03-25T06:45:50;99867.03;;;4.34;100.00
34961;BME280;30789;52.030;7.110;2024-03-25T06:48:16;99861.84;;;4.29;100.00
34961;BME280;30789;52.030;7.110;2024-03-25T06:50:56;99869.66;;;4.30;100.00
34961;BME280;30789;52.030;7.110;2024-03-25T06:53:25;99868.44;;;4.28;100.00
34961;BME280;30789;52.030;7.110;2024-03-25T06:55:52;99872.75;;;4.29;100.00
34961;BME280;30789;52.030;7.110;2024-03-25T06:58:21;99866.28;;;4.37;100.00
34961;BME280;30789;52.030;7.110;2024-03-25T07:00:47;99872.59;;;4.41;100.00
34961;BME280;30789;52.030;7.110;2024-03-25T07:03:13;99875.84;;;4.50;100.00
34961;BME280;30789;52.030;7.110;2024-03-25T07:05:41;99876.41;;;4.59;100.00
34961;BME280;30789;52.030;7.110;2024-03-25T07:08:07;99871.91;;;4.70;100.00
34961;BME280;30789;52.030;7.110;2024-03-25T07:10:32;99869.03;;;4.59;100.00
34961;BME280;30789;52.030;7.110;2024-03-25T07:12:58;99870.94;;;4.59;100.00
34961;BME280;30789;52.030;7.110;2024-03-25T07:15:27;99870.09;;;4.77;100.00
34961;BME280;30789;52.030;7.110;2024-03-25T07:17:53;99873.69;;;4.59;100.00
34961;BME280;30789;52.030;7.110;2024-03-25T07:20:19;99873.19;;;4.53;100.00
34961;BME280;30789;52.030;7.110;2024-03-25T07:22:45;99870.28;;;4.65;100.00
34961;BME280;30789;52.030;7.110;2024-03-25T07:25:11;99874.38;;;4.78;100.00
34961;BME280;30789;52.030;7.110;2024-03-25T07:27:36;99874.22;;;4.90;100.00
34961;BME280;30789;52.030;7.110;2024-03-25T07:30:02;99870.38;;;4.95;100.00
34961;BME280;30789;52.030;7.110;2024-03-25T07:32:35;99883.88;;;5.10;100.00
34961;BME280;30789;52.030;7.110;2024-03-25T07:35:01;99883.50;;;5.12;100.00
34961;BME280;30789;52.030;7.110;2024-03-25T07:37:26;99879.69;;;5.16;100.00
34961;BME280;30789;52.030;7.110;2024-03-25T07:39:55;99886.28;;;5.15;100.00
34961;BME280;30789;52.030;7.110;2024-03-25T07:42:27;99880.72;;;5.35;100.00
34961;BME280;30789;52.030;7.110;2024-03-25T07:44:58;99874.22;;;5.43;100.00
34961;BME280;30789;52.030;7.110;2024-03-25T07:47:28;99879.56;;;5.36;100.00
34961;BME280;30789;52.030;7.110;2024-03-25T07:50:04;99878.50;;;5.44;100.00
34961;BME280;30789;52.030;7.110;2024-03-25T07:52:34;99884.78;;;5.44;100.00
34961;BME280;30789;52.030;7.110;2024-03-25T07:55:24;99884.53;;;5.56;100.00
34961;BME280;30789;52.030;7.110;2024-03-25T08:02:57;99887.81;;;5.95;100.00
34961;BME280;30789;52.030;7.110;2024-03-25T08:05:30;99886.19;;;6.23;100.00
34961;BME280;30789;52.030;7.110;2024-03-25T08:08:41;99885.94;;;6.39;98.85
34961;BME280;30789;52.030;7.110;2024-03-25T08:11:16;99886.50;;;6.55;98.07
34961;BME280;30789;52.030;7.110;2024-03-25T08:13:42;99889.69;;;6.60;98.81
34961;BME280;30789;52.030;7.110;2024-03-25T08:16:10;99887.81;;;6.68;97.47
34961;BME280;30789;52.030;7.110;2024-03-25T08:18:38;99892.66;;;6.88;95.90
34961;BME280;30789;52.030;7.110;2024-03-25T08:21:10;99889.63;;;6.97;94.90
34961;BME280;30789;52.030;7.110;2024-03-25T08:24:01;99887.72;;;7.05;94.82
34961;BME280;30789;52.030;7.110;2024-03-25T08:26:44;99890.56;;;7.22;92.76
34961;BME280;30789;52.030;7.110;2024-03-25T08:29:13;99887.41;;;7.17;90.55
34961;BME280;30789;52.030;7.110;2024-03-25T08:31:41;99887.38;;;7.10;91.54
34961;BME280;30789;52.030;7.110;2024-03-25T08:34:13;99883.94;;;7.23;91.93
34961;BME280;30789;52.030;7.110;2024-03-25T08:36:41;99887.84;;;7.26;92.34
34961;BME280;30789;52.030;7.110;2024-03-25T08:39:31;99890.56;;;7.22;91.90
34961;BME280;30789;52.030;7.110;2024-03-25T08:42:30;99886.78;;;7.37;92.64
34961;BME280;30789;52.030;7.110;2024-03-25T08:44:52;99883.78;;;7.63;90.08
34961;BME280;30789;52.030;7.110;2024-03-25T08:47:25;99892.78;;;7.60;90.70
34961;BME280;30789;52.030;7.110;2024-03-25T08:50:24;99883.53;;;7.93;89.57
34961;BME280;30789;52.030;7.110;2024-03-25T08:59:11;99891.72;;;7.86;84.71
34961;BME280;30789;52.030;7.110;2024-03-25T09:01:37;99894.16;;;8.05;84.55
34961;BME280;30789;52.030;7.110;2024-03-25T09:04:22;99882.13;;;8.30;84.62
34961;BME280;30789;52.030;7.110;2024-03-25T09:36:12;99889.50;;;8.12;78.38
34961;BME280;30789;52.030;7.110;2024-03-25T09:38:41;99883.69;;;8.42;79.80
34961;BME280;30789;52.030;7.110;2024-03-25T09:41:08;99889.25;;;8.91;75.89
34961;BME280;30789;52.030;7.110;2024-03-25T09:43:43;99893.97;;;9.12;69.57
34961;BME280;30789;52.030;7.110;2024-03-25T09:46:09;99882.97;;;8.87;69.19
34961;BME280;30789;52.030;7.110;2024-03-25T09:51:25;99875.47;;;8.38;72.04
34961;BME280;30789;52.030;7.110;2024-03-25T09:53:51;99874.16;;;8.01;72.02
34961;BME280;30789;52.030;7.110;2024-03-25T09:56:31;99877.44;;;8.45;71.75
34961;BME280;30789;52.030;7.110;2024-03-25T10:09:38;99888.00;;;9.62;68.10
34961;BME280;30789;52.030;7.110;2024-03-25T10:21:27;99881.09;;;10.19;61.53
34961;BME280;30789;52.030;7.110;2024-03-25T10:23:53;99880.78;;;10.00;63.82
34961;BME280;30789;52.030;7.110;2024-03-25T10:26:39;99873.72;;;10.02;66.15
34961;BME280;30789;52.030;7.110;2024-03-25T10:29:05;99872.50;;;10.14;65.98
34961;BME280;30789;52.030;7.110;2024-03-25T10:32:00;99874.38;;;10.27;63.30
34961;BME280;30789;52.030;7.110;2024-03-25T11:00:27;99840.78;;;12.66;53.41
34961;BME280;30789;52.030;7.110;2024-03-25T11:03:02;99840.53;;;12.80;51.51
34961;BME280;30789;52.030;7.110;2024-03-25T11:05:33;99837.63;;;13.36;55.79
34961;BME280;30789;52.030;7.110;2024-03-25T11:08:29;99835.69;;;14.47;50.62
34961;BME280;30789;52.030;7.110;2024-03-25T11:10:55;99838.03;;;14.49;50.78
34961;BME280;30789;52.030;7.110;2024-03-25T11:16:26;99824.66;;;12.07;55.59
34961;BME280;30789;52.030;7.110;2024-03-25T11:19:03;99826.28;;;13.70;53.56
34961;BME280;30789;52.030;7.110;2024-03-25T11:21:32;99825.41;;;14.48;51.08
34961;BME280;30789;52.030;7.110;2024-03-25T11:24:15;99813.81;;;14.53;50.07
34961;BME280;30789;52.030;7.110;2024-03-25T11:26:43;99814.53;;;13.43;49.77
34961;BME280;30789;52.030;7.110;2024-03-25T11:29:12;99811.06;;;11.90;55.61
34961;BME280;30789;52.030;7.110;2024-03-25T11:31:39;99800.94;;;11.09;55.94
34961;BME280;30789;52.030;7.110;2024-03-25T11:34:08;99815.34;;;10.87;58.77
34961;BME280;30789;52.030;7.110;2024-03-25T11:36:34;99807.00;;;10.43;59.32
34961;BME280;30789;52.030;7.110;2024-03-25T11:39:00;99799.63;;;10.32;58.96
34961;BME280;30789;52.030;7.110;2024-03-25T11:41:28;99795.56;;;10.48;59.71
34961;BME280;30789;52.030;7.110;2024-03-25T11:43:56;99796.28;;;10.59;57.86
34961;BME280;30789;52.030;7.110;2024-03-25T11:46:25;99800.72;;;12.24;55.87
34961;BME280;30789;52.030;7.110;2024-03-25T11:48:58;99798.28;;;14.04;52.12
34961;BME280;30789;52.030;7.110;2024-03-25T11:51:24;99794.97;;;14.44;50.29
34961;BME280;30789;52.030;7.110;2024-03-25T11:53:50;99788.00;;;13.45;48.68
34961;BME280;30789;52.030;7.110;2024-03-25T11:56:18;99789.44;;;13.73;49.77
34961;BME280;30789;52.030;7.110;2024-03-25T11:58:45;99782.00;;;14.89;45.85
34961;BME280;30789;52.030;7.110;2024-03-25T12:01:11;99789.31;;;15.57;42.42
34961;BME280;30789;52.030;7.110;2024-03-25T12:03:41;99781.47;;;14.11;45.47
34961;BME280;30789;52.030;7.110;2024-03-25T12:06:09;99785.44;;;15.67;45.63
34961;BME280;30789;52.030;7.110;2024-03-25T12:08:34;99784.56;;;15.57;43.88
34961;BME280;30789;52.030;7.110;2024-03-25T12:11:03;99779.91;;;14.29;44.45
34961;BME280;30789;52.030;7.110;2024-03-25T12:13:50;99772.88;;;13.69;47.83
34961;BME280;30789;52.030;7.110;2024-03-25T12:16:16;99765.28;;;13.54;49.41
34961;BME280;30789;52.030;7.110;2024-03-25T12:18:43;99764.53;;;13.53;49.33
34961;BME280;30789;52.030;7.110;2024-03-25T12:21:10;99757.81;;;14.74;45.95
34961;BME280;30789;52.030;7.110;2024-03-25T12:23:36;99761.28;;;14.46;44.87
34961;BME280;30789;52.030;7.110;2024-03-25T12:26:06;99757.91;;;13.28;44.71
34961;BME280;30789;52.030;7.110;2024-03-25T12:28:32;99753.06;;;12.66;47.32
34961;BME280;30789;52.030;7.110;2024-03-25T12:30:58;99755.28;;;12.98;47.51
34961;BME280;30789;52.030;7.110;2024-03-25T12:33:23;99744.06;;;14.54;45.77
34961;BME280;30789;52.030;7.110;2024-03-25T12:35:51;99737.41;;;14.96;45.02
34961;BME280;30789;52.030;7.110;2024-03-25T12:38:25;99736.97;;;16.09;42.37
34961;BME280;30789;52.030;7.110;2024-03-25T12:40:52;99731.41;;;16.46;42.39
34961;BME280;30789;52.030;7.110;2024-03-25T12:43:18;99732.28;;;16.56;38.56
34961;BME280;30789;52.030;7.110;2024-03-25T12:45:44;99725.41;;;14.71;41.42
34961;BME280;30789;52.030;7.110;2024-03-25T12:48:10;99729.91;;;15.67;40.90
34961;BME280;30789;52.030;7.110;2024-03-25T12:50:36;99732.84;;;16.97;38.67
34961;BME280;30789;52.030;7.110;2024-03-25T12:53:02;99712.22;;;15.61;40.92
34961;BME280;30789;52.030;7.110;2024-03-25T12:55:29;99712.38;;;16.45;38.09
34961;BME280;30789;52.030;7.110;2024-03-25T12:57:55;99711.94;;;16.09;40.44
34961;BME280;30789;52.030;7.110;2024-03-25T13:00:21;99708.00;;;16.69;39.91
34961;BME280;30789;52.030;7.110;2024-03-25T13:02:47;99712.22;;;17.72;36.14
34961;BME280;30789;52.030;7.110;2024-03-25T13:05:15;99712.88;;;18.07;33.42
34961;BME280;30789;52.030;7.110;2024-03-25T13:07:41;99707.34;;;17.85;36.15
34961;BME280;30789;52.030;7.110;2024-03-25T13:10:07;99707.38;;;17.64;35.23
34961;BME280;30789;52.030;7.110;2024-03-25T13:12:34;99698.94;;;17.33;38.17
34961;BME280;30789;52.030;7.110;2024-03-25T13:15:00;99703.31;;;15.53;38.69
34961;BME280;30789;52.030;7.110;2024-03-25T13:17:26;99700.03;;;15.71;37.15
34961;BME280;30789;52.030;7.110;2024-03-25T13:19:52;99700.25;;;15.35;38.62
34961;BME280;30789;52.030;7.110;2024-03-25T13:22:18;99695.94;;;15.88;38.14
34961;BME280;30789;52.030;7.110;2024-03-25T13:24:45;99687.13;;;15.64;38.31
34961;BME280;30789;52.030;7.110;2024-03-25T13:27:13;99687.91;;;15.23;38.55
34961;BME280;30789;52.030;7.110;2024-03-25T13:29:40;99684.59;;;15.70;39.29
34961;BME280;30789;52.030;7.110;2024-03-25T13:32:06;99678.19;;;14.58;40.36
34961;BME280;30789;52.030;7.110;2024-03-25T13:34:32;99671.00;;;15.59;40.91
34961;BME280;30789;52.030;7.110;2024-03-25T13:36:58;99678.59;;;15.96;39.36
34961;BME280;30789;52.030;7.110;2024-03-25T13:39:23;99663.25;;;15.25;39.45
34961;BME280;30789;52.030;7.110;2024-03-25T13:41:49;99664.00;;;14.40;40.88
34961;BME280;30789;52.030;7.110;2024-03-25T13:44:15;99666.44;;;12.96;42.87
34961;BME280;30789;52.030;7.110;2024-03-25T13:46:42;99668.69;;;13.04;44.23
34961;BME280;30789;52.030;7.110;2024-03-25T13:49:08;99669.84;;;13.42;43.79
34961;BME280;30789;52.030;7.110;2024-03-25T13:51:42;99662.78;;;14.09;42.31
34961;BME280;30789;52.030;7.110;2024-03-25T13:54:07;99668.25;;;16.09;39.09
34961;BME280;30789;52.030;7.110;2024-03-25T13:56:35;99665.16;;;17.44;37.93
34961;BME280;30789;52.030;7.110;2024-03-25T13:59:04;99659.06;;;16.93;36.01
34961;BME280;30789;52.030;7.110;2024-03-25T14:01:30;99655.41;;;14.51;41.32
34961;BME280;30789;52.030;7.110;2024-03-25T14:03:57;99653.50;;;12.89;43.59
34961;BME280;30789;52.030;7.110;2024-03-25T14:06:23;99646.75;;;12.05;44.65
34961;BME280;30789;52.030;7.110;2024-03-25T14:08:48;99648.41;;;12.45;44.75
34961;BME280;30789;52.030;7.110;2024-03-25T14:11:16;99640.97;;;14.11;42.18
34961;BME280;30789;52.030;7.110;2024-03-25T14:13:42;99633.78;;;15.03;37.76
34961;BME280;30789;52.030;7.110;2024-03-25T14:16:08;99634.56;;;16.20;37.89
34961;BME280;30789;52.030;7.110;2024-03-25T14:18:36;99627.19;;;17.16;35.04
34961;BME280;30789;52.030;7.110;2024-03-25T14:21:04;99626.38;;;18.46;34.25
34961;BME280;30789;52.030;7.110;2024-03-25T14:23:30;99623.03;;;17.42;33.37
34961;BME280;30789;52.030;7.110;2024-03-25T14:25:56;99617.56;;;16.64;33.77
34961;BME280;30789;52.030;7.110;2024-03-25T14:28:22;99613.13;;;16.08;35.89
34961;BME280;30789;52.030;7.110;2024-03-25T14:30:47;99618.19;;;16.68;35.91
34961;BME280;30789;52.030;7.110;2024-03-25T14:33:13;99619.13;;;16.87;35.31
34961;BME280;30789;52.030;7.110;2024-03-25T14:35:39;99615.72;;;16.36;35.92
34961;BME280;30789;52.030;7.110;2024-03-25T14:38:06;99611.22;;;17.07;33.65
34961;BME280;30789;52.030;7.110;2024-03-25T14:40:32;99599.59;;;17.52;35.69